昆明 の空港の天気 - METARとTAF

昆明巫家餽国際空港 ( ZPPP / KMG ) - 中国 雲南省昆明市
飛行場実況気象(Metar)
観測時間07/16 14:00 CST (07/16 06:00 UTC)
風向・風速北東 2m/s
視程10km以上
天気現象
少しの雲 雲底高度 790m
全天の4割程度の雲 雲底高度 790m
全天の8割程度の雲 雲底高度 1310m
気温22℃
湿度65%
気圧1018hPa
METARZPPP 160600Z 04002MPS 330V120 9999 FEW026TCU SCT026 BKN043 22/15 Q1018 NOSIG
過去の天気等 Google飛行場航空写真 Wunderground天気予報

過去48時間のMETAR

飛行場予報(TAF)
発表時間: 7/16 09:15 CST (7/16 01:15 UTC)
予報対象時間: 16日14時 CST ~ 17日14時 CST
風向・風速東南東 4m/s
視程10km以上
全天の4割程度の雲 雲底高度 700m
全天の8割程度の雲 雲底高度 1220m
TAF ZPPP 160115Z 1606/1706 12004MPS 9999 SCT023 BKN040 TX26/1608Z TN16/1623Z